createdAt,value
2022-11-15T00:00:56.600Z,42.05
2022-11-15T00:03:25.960Z,38.15
2022-11-15T00:05:52.684Z,38.22
2022-11-15T00:08:19.195Z,43.45
2022-11-15T00:10:56.660Z,38.17
2022-11-15T00:13:23.169Z,40.08
2022-11-15T00:15:49.561Z,40.28
2022-11-15T00:18:16.828Z,33.90
2022-11-15T00:20:43.815Z,82.70
2022-11-15T00:23:10.228Z,42.88
2022-11-15T00:25:36.825Z,37.63
2022-11-15T00:28:03.515Z,37.08
2022-11-15T00:30:30.066Z,36.55
2022-11-15T00:32:56.494Z,32.47
2022-11-15T00:35:23.173Z,28.92
2022-11-15T00:37:49.616Z,32.72
2022-11-15T00:40:16.470Z,36.63
2022-11-15T00:42:42.898Z,32.78
2022-11-15T00:45:10.139Z,34.97
2022-11-15T00:47:36.602Z,34.53
2022-11-15T00:50:03.250Z,35.08
2022-11-15T00:52:29.650Z,35.85
2022-11-15T00:54:56.012Z,30.88
2022-11-15T00:57:22.398Z,33.20
2022-11-15T00:59:48.746Z,42.17
2022-11-15T01:02:15.107Z,36.35
2022-11-15T01:04:41.438Z,33.00
2022-11-15T01:07:07.832Z,31.50
2022-11-15T01:09:34.251Z,32.97
2022-11-15T01:12:00.694Z,35.85
2022-11-15T01:14:27.138Z,31.60
2022-11-15T01:16:56.341Z,34.80
2022-11-15T01:19:22.785Z,32.05
2022-11-15T01:21:50.928Z,30.45
2022-11-15T01:24:17.304Z,33.00
2022-11-15T01:26:43.748Z,32.35
2022-11-15T01:29:10.110Z,29.92
2022-11-15T01:31:36.508Z,31.90
2022-11-15T01:34:02.867Z,28.67
2022-11-15T01:36:29.257Z,29.08
2022-11-15T01:38:57.729Z,28.15
2022-11-15T01:41:26.582Z,28.27
2022-11-15T01:43:56.242Z,29.63
2022-11-15T01:46:22.531Z,28.02
2022-11-15T01:48:52.454Z,28.58
2022-11-15T01:51:21.226Z,28.80
2022-11-15T01:53:52.208Z,28.30
2022-11-15T01:56:24.083Z,26.23
2022-11-15T01:58:52.524Z,25.83
2022-11-15T02:01:19.139Z,27.75
2022-11-15T02:03:52.504Z,28.08
2022-11-15T02:06:19.747Z,25.33
2022-11-15T02:08:46.267Z,26.75
2022-11-15T02:11:12.686Z,24.77
2022-11-15T02:13:39.366Z,26.30
2022-11-15T02:16:19.885Z,25.48
2022-11-15T02:21:34.625Z,24.30
2022-11-15T02:24:21.695Z,23.50
2022-11-15T02:27:25.278Z,23.70
2022-11-15T02:30:16.681Z,23.80
2022-11-15T02:33:34.788Z,24.38
2022-11-15T02:36:10.601Z,23.30
2022-11-15T02:39:19.196Z,25.33
2022-11-15T02:41:55.031Z,25.25
2022-11-15T02:44:27.864Z,23.33
2022-11-15T02:47:15.030Z,24.98
2022-11-15T02:50:03.244Z,25.92
2022-11-15T02:52:29.631Z,22.42
2022-11-15T02:55:01.248Z,23.73
2022-11-15T02:57:51.456Z,22.73
2022-11-15T03:00:21.977Z,22.92
2022-11-15T03:03:16.267Z,23.88
2022-11-15T03:05:54.219Z,22.02
2022-11-15T03:08:33.436Z,23.27
2022-11-15T03:11:13.753Z,26.25
2022-11-15T03:14:01.624Z,25.80
2022-11-15T03:16:37.845Z,26.02
2022-11-15T03:19:15.110Z,29.88
2022-11-15T03:21:42.272Z,26.77
2022-11-15T03:24:09.688Z,25.38
2022-11-15T03:26:39.653Z,25.48
2022-11-15T03:29:12.684Z,25.92
2022-11-15T03:31:50.928Z,26.27
2022-11-15T03:34:41.717Z,24.05
2022-11-15T03:37:09.860Z,22.27
2022-11-15T03:39:36.259Z,23.45
2022-11-15T03:42:29.327Z,23.95
2022-11-15T03:45:03.466Z,24.83
2022-11-15T03:47:37.199Z,24.00
2022-11-15T03:50:09.210Z,23.45
2022-11-15T03:52:36.188Z,22.40
2022-11-15T03:55:05.213Z,24.45
2022-11-15T03:57:31.635Z,22.27
2022-11-15T03:59:58.002Z,24.15
2022-11-15T04:02:24.389Z,22.25
2022-11-15T04:04:50.774Z,22.70
2022-11-15T04:07:17.407Z,22.73
2022-11-15T04:10:02.878Z,21.55
2022-11-15T04:12:36.718Z,23.08
2022-11-15T04:15:09.061Z,27.10
2022-11-15T04:17:36.646Z,25.13
2022-11-15T04:20:24.028Z,24.40
2022-11-15T04:23:12.574Z,25.50
2022-11-15T04:25:39.212Z,24.02
2022-11-15T04:28:05.657Z,25.52
2022-11-15T04:30:32.230Z,27.65
2022-11-15T04:32:58.637Z,25.92
2022-11-15T04:35:24.986Z,22.20
2022-11-15T04:37:51.663Z,21.98
2022-11-15T04:40:18.143Z,23.45
2022-11-15T04:42:47.274Z,22.85
2022-11-15T04:45:13.764Z,21.42
2022-11-15T04:47:40.161Z,22.00
2022-11-15T04:50:07.089Z,22.45
2022-11-15T04:52:33.476Z,22.67
2022-11-15T04:55:03.607Z,21.90
2022-11-15T04:57:33.197Z,22.35
2022-11-15T04:59:59.552Z,24.92
2022-11-15T05:02:45.886Z,21.10
2022-11-15T05:05:12.290Z,21.40
2022-11-15T05:07:38.662Z,20.88
2022-11-15T05:10:05.426Z,19.63
2022-11-15T05:12:31.853Z,20.90
2022-11-15T05:14:58.202Z,20.23
2022-11-15T05:17:27.484Z,21.42
2022-11-15T05:19:53.914Z,19.70
2022-11-15T05:22:20.596Z,20.98
2022-11-15T05:24:46.996Z,19.48
2022-11-15T05:27:13.359Z,20.35
2022-11-15T05:29:39.739Z,20.02
2022-11-15T05:32:07.345Z,21.10
2022-11-15T05:34:33.715Z,20.30
2022-11-15T05:37:00.342Z,20.30
2022-11-15T05:39:27.036Z,19.13
2022-11-15T05:41:59.003Z,17.35
2022-11-15T05:44:27.235Z,16.98
2022-11-15T05:46:55.347Z,16.30
2022-11-15T05:49:26.183Z,15.70
2022-11-15T05:51:53.337Z,15.07
2022-11-15T05:54:21.023Z,15.13
2022-11-15T05:56:47.659Z,15.23
2022-11-15T05:59:14.427Z,16.77
2022-11-15T06:01:41.465Z,19.02
2022-11-15T06:04:07.911Z,16.10
2022-11-15T06:06:34.308Z,18.73
2022-11-15T06:09:00.707Z,19.30
2022-11-15T06:11:27.100Z,16.60
2022-11-15T06:13:53.514Z,19.27
2022-11-15T06:16:19.899Z,18.23
2022-11-15T06:18:49.030Z,18.17
2022-11-15T06:21:15.470Z,18.98
2022-11-15T06:23:41.862Z,18.67
2022-11-15T06:26:08.248Z,20.30
2022-11-15T06:28:35.112Z,20.15
2022-11-15T06:31:10.202Z,19.20
2022-11-15T06:33:36.576Z,21.20
2022-11-15T06:36:13.093Z,26.23
2022-11-15T06:38:42.623Z,21.77
2022-11-15T06:41:10.717Z,24.70
2022-11-15T06:43:38.051Z,25.33
2022-11-15T06:46:06.150Z,26.60
2022-11-15T06:48:34.034Z,25.52
2022-11-15T06:51:02.329Z,25.38
2022-11-15T06:53:30.499Z,25.02
2022-11-15T06:56:01.971Z,27.35
2022-11-15T06:58:31.119Z,23.90
2022-11-15T07:01:02.527Z,26.75
2022-11-15T07:03:29.377Z,24.00
2022-11-15T07:05:58.488Z,23.95
2022-11-15T07:08:29.091Z,22.58
2022-11-15T07:10:58.426Z,24.20
2022-11-15T07:13:26.790Z,25.30
2022-11-15T07:15:53.421Z,24.95
2022-11-15T07:18:19.970Z,24.63
2022-11-15T07:20:46.419Z,24.23
2022-11-15T07:23:12.827Z,25.85
2022-11-15T07:25:39.233Z,25.42
2022-11-15T07:28:05.929Z,27.20
2022-11-15T07:30:32.593Z,27.13
2022-11-15T07:33:01.181Z,27.50
2022-11-15T07:35:29.223Z,28.08
2022-11-15T07:37:55.961Z,26.73
2022-11-15T07:40:22.903Z,25.75
2022-11-15T07:42:55.474Z,26.10
2022-11-15T07:45:23.363Z,23.48
2022-11-15T07:47:50.755Z,26.02
2022-11-15T07:50:18.668Z,26.63
2022-11-15T07:52:45.673Z,24.90
2022-11-15T07:55:12.296Z,22.77
2022-11-15T07:57:38.926Z,23.25
2022-11-15T08:00:06.874Z,22.17
2022-11-15T08:02:33.596Z,22.50
2022-11-15T08:05:00.282Z,21.98
2022-11-15T08:07:29.898Z,23.67
2022-11-15T08:09:56.349Z,22.50
2022-11-15T08:12:23.167Z,22.60
2022-11-15T08:14:49.535Z,22.23
2022-11-15T08:17:15.932Z,24.08
2022-11-15T08:19:42.297Z,21.48
2022-11-15T08:22:08.958Z,21.80
2022-11-15T08:24:35.321Z,23.13
2022-11-15T08:27:01.720Z,20.85
2022-11-15T08:29:28.141Z,20.63
2022-11-15T08:31:56.886Z,20.38
2022-11-15T08:34:23.295Z,21.90
2022-11-15T08:36:49.664Z,21.45
2022-11-15T08:39:16.010Z,22.08
2022-11-15T08:41:42.359Z,21.42
2022-11-15T08:44:08.735Z,22.73
2022-11-15T08:46:35.082Z,24.85
2022-11-15T08:49:01.467Z,23.60
2022-11-15T08:51:27.854Z,23.73
2022-11-15T08:53:54.241Z,26.60
2022-11-15T08:56:20.589Z,25.60
2022-11-15T08:58:47.855Z,25.80
2022-11-15T09:01:20.409Z,25.70
2022-11-15T09:03:46.881Z,25.23
2022-11-15T09:06:13.541Z,25.25
2022-11-15T09:08:47.398Z,27.05
2022-11-15T09:11:15.485Z,24.48
2022-11-15T09:13:42.276Z,28.05
2022-11-15T09:16:08.643Z,27.75
2022-11-15T09:18:35.298Z,27.92
2022-11-15T09:21:03.706Z,25.67
2022-11-15T09:23:30.423Z,28.02
2022-11-15T09:26:02.188Z,24.27
2022-11-15T09:28:29.712Z,25.17
2022-11-15T09:31:01.213Z,25.92
2022-11-15T09:33:28.439Z,25.40
2022-11-15T09:36:00.108Z,25.65
2022-11-15T09:38:27.267Z,27.35
2022-11-15T09:41:19.149Z,23.75
2022-11-15T09:44:17.960Z,23.17
2022-11-15T09:47:34.270Z,23.25
2022-11-15T09:50:08.779Z,23.55
2022-11-15T09:52:37.117Z,22.92
2022-11-15T09:55:03.784Z,22.23
2022-11-15T09:57:55.224Z,21.00
2022-11-15T10:03:28.329Z,19.25
2022-11-15T10:05:59.066Z,20.58
2022-11-15T10:08:31.954Z,20.33
2022-11-15T10:11:30.694Z,21.30
2022-11-15T10:13:51.130Z,19.90
2022-11-15T10:16:32.895Z,19.63
2022-11-15T10:19:24.599Z,19.08
2022-11-15T10:22:12.200Z,21.48
2022-11-15T10:24:43.283Z,20.33
2022-11-15T10:27:18.104Z,21.13
2022-11-15T10:29:46.875Z,22.70
2022-11-15T10:32:16.626Z,20.08
2022-11-15T10:34:43.561Z,19.15
2022-11-15T10:37:09.988Z,19.00
2022-11-15T10:39:36.888Z,18.15
2022-11-15T10:42:18.286Z,18.45
2022-11-15T10:44:46.026Z,20.20
2022-11-15T10:47:38.957Z,18.88
2022-11-15T10:50:25.797Z,17.98
2022-11-15T10:52:52.218Z,20.90
2022-11-15T10:55:18.543Z,17.98
2022-11-15T10:57:52.610Z,17.48
2022-11-15T11:00:22.080Z,18.30
2022-11-15T11:02:57.944Z,17.23
2022-11-15T11:05:30.058Z,18.13
2022-11-15T11:08:05.300Z,17.80
2022-11-15T11:13:28.384Z,17.95
2022-11-15T11:16:17.578Z,17.17
2022-11-15T11:19:11.802Z,17.42
2022-11-15T11:21:52.315Z,16.90
2022-11-15T11:27:14.275Z,17.25
2022-11-15T11:30:04.447Z,16.35
2022-11-15T11:32:55.269Z,17.38
2022-11-15T11:35:31.796Z,17.60
2022-11-15T11:38:16.933Z,18.77
2022-11-15T11:41:01.107Z,17.58
2022-11-15T11:43:41.676Z,17.90
2022-11-15T11:46:33.264Z,17.58
2022-11-15T11:49:09.022Z,17.13
2022-11-15T11:51:41.826Z,17.42
2022-11-15T11:54:23.869Z,16.58
2022-11-15T11:56:51.371Z,16.38
2022-11-15T11:59:33.127Z,17.20
2022-11-15T12:02:09.654Z,17.25
2022-11-15T12:04:43.425Z,16.92
2022-11-15T12:07:18.640Z,16.30
2022-11-15T12:10:09.123Z,17.23
2022-11-15T12:15:24.693Z,16.85
2022-11-15T12:20:23.827Z,16.75
2022-11-15T12:22:58.223Z,15.98
2022-11-15T12:25:31.817Z,16.98
2022-11-15T12:28:00.557Z,17.05
2022-11-15T12:30:37.864Z,16.25
2022-11-15T12:33:04.312Z,16.75
2022-11-15T12:35:40.806Z,17.20
2022-11-15T12:38:12.063Z,16.42
2022-11-15T12:40:59.458Z,16.50
2022-11-15T12:43:42.438Z,17.02
2022-11-15T12:46:44.884Z,15.57
2022-11-15T12:49:25.071Z,16.98
2022-11-15T12:51:52.903Z,17.10
2022-11-15T12:54:22.466Z,16.75
2022-11-15T12:57:04.034Z,16.50
2022-11-15T12:59:58.762Z,17.23
2022-11-15T13:02:37.186Z,16.98
2022-11-15T13:05:19.330Z,16.38
2022-11-15T13:07:45.729Z,16.38
2022-11-15T13:10:28.092Z,16.15
2022-11-15T13:13:09.387Z,17.17
2022-11-15T13:15:52.722Z,16.33
2022-11-15T13:18:33.113Z,16.42
2022-11-15T13:21:02.603Z,17.50
2022-11-15T13:23:29.857Z,17.17
2022-11-15T13:26:13.793Z,17.33
2022-11-15T13:28:46.254Z,16.30
2022-11-15T13:31:35.489Z,16.67
2022-11-15T13:34:36.629Z,16.13
2022-11-15T13:37:02.290Z,16.23
2022-11-15T13:39:34.765Z,18.40
2022-11-15T13:42:01.271Z,17.88
2022-11-15T13:44:30.664Z,18.52
2022-11-15T13:47:19.581Z,18.40
2022-11-15T13:49:46.002Z,19.52
2022-11-15T13:52:15.307Z,19.13
2022-11-15T13:55:03.150Z,19.73
2022-11-15T13:57:54.189Z,18.77
2022-11-15T14:00:35.189Z,18.40
2022-11-15T14:03:19.759Z,17.05
2022-11-15T14:06:11.417Z,16.85
2022-11-15T14:08:37.916Z,17.10
2022-11-15T14:11:15.839Z,17.50
2022-11-15T14:13:42.467Z,17.67
2022-11-15T14:16:22.308Z,17.27
2022-11-15T14:18:51.442Z,17.58
2022-11-15T14:21:19.795Z,18.98
2022-11-15T14:23:46.388Z,17.92
2022-11-15T14:26:33.186Z,20.92
2022-11-15T14:29:28.611Z,20.08
2022-11-15T14:32:13.358Z,20.60
2022-11-15T14:34:40.101Z,21.33
2022-11-15T14:37:14.962Z,20.23
2022-11-15T14:39:41.314Z,20.55
2022-11-15T14:42:10.561Z,19.92
2022-11-15T14:44:37.313Z,19.35
2022-11-15T14:47:03.667Z,18.70
2022-11-15T14:49:30.024Z,19.85
2022-11-15T14:51:57.607Z,19.77
2022-11-15T14:54:24.155Z,19.80
2022-11-15T14:56:50.494Z,19.88
2022-11-15T14:59:16.862Z,19.48
2022-11-15T15:01:43.292Z,19.92
2022-11-15T15:04:11.698Z,18.98
2022-11-15T15:06:39.138Z,20.60
2022-11-15T15:09:06.147Z,20.08
2022-11-15T15:11:32.604Z,19.55
2022-11-15T15:14:01.926Z,20.52
2022-11-15T15:16:28.421Z,20.70
2022-11-15T15:18:55.002Z,20.27
2022-11-15T15:21:23.984Z,21.77
2022-11-15T15:23:50.803Z,20.77
2022-11-15T15:26:17.738Z,20.42
2022-11-15T15:28:44.252Z,20.77
2022-11-15T15:31:11.384Z,20.90
2022-11-15T15:33:38.373Z,22.33
2022-11-15T15:36:05.401Z,21.15
2022-11-15T15:38:32.141Z,22.00
2022-11-15T15:41:00.545Z,22.13
2022-11-15T15:43:26.901Z,23.13
2022-11-15T15:45:53.330Z,24.48
2022-11-15T15:48:19.702Z,22.98
2022-11-15T15:50:46.143Z,26.48
2022-11-15T15:53:13.618Z,24.60
2022-11-15T15:55:40.460Z,23.60
2022-11-15T15:58:07.604Z,24.88
2022-11-15T16:00:34.660Z,25.77
2022-11-15T16:03:01.112Z,31.30
2022-11-15T16:05:27.488Z,27.08
2022-11-15T16:07:53.838Z,26.33
2022-11-15T16:10:33.232Z,28.38
2022-11-15T16:12:59.679Z,25.48
2022-11-15T16:15:32.032Z,24.20
2022-11-15T16:18:00.292Z,23.42
2022-11-15T16:20:40.223Z,25.83
2022-11-15T16:23:09.955Z,27.48
2022-11-15T16:25:49.445Z,26.83
2022-11-15T16:28:21.674Z,24.35
2022-11-15T16:30:56.560Z,24.42
2022-11-15T16:33:23.586Z,30.10
2022-11-15T16:35:50.039Z,24.48
2022-11-15T16:38:16.779Z,24.67
2022-11-15T16:40:43.446Z,24.38
2022-11-15T16:43:10.536Z,26.88
2022-11-15T16:45:37.501Z,24.55
2022-11-15T16:48:04.704Z,26.52
2022-11-15T16:50:39.807Z,30.52
2022-11-15T16:53:06.524Z,26.20
2022-11-15T16:55:32.986Z,25.17
2022-11-15T16:57:59.358Z,24.50
2022-11-15T17:00:26.068Z,26.48
2022-11-15T17:02:53.303Z,26.98
2022-11-15T17:05:21.689Z,24.27
2022-11-15T17:07:55.132Z,26.40
2022-11-15T17:10:23.518Z,25.88
2022-11-15T17:12:50.992Z,27.15
2022-11-15T17:15:18.156Z,27.73
2022-11-15T17:17:45.247Z,29.63
2022-11-15T17:20:17.674Z,27.50
2022-11-15T17:22:44.147Z,27.70
2022-11-15T17:25:10.939Z,27.90
2022-11-15T17:27:37.399Z,26.98
2022-11-15T17:30:04.524Z,26.63
2022-11-15T17:32:31.036Z,28.70
2022-11-15T17:34:57.388Z,28.33
2022-11-15T17:37:23.757Z,27.55
2022-11-15T17:39:50.098Z,28.58
2022-11-15T17:42:16.494Z,27.27
2022-11-15T17:44:42.868Z,25.75
2022-11-15T17:47:09.218Z,26.98
2022-11-15T17:49:39.378Z,25.73
2022-11-15T17:52:05.783Z,26.10
2022-11-15T17:54:32.102Z,26.67
2022-11-15T17:56:58.499Z,26.55
2022-11-15T17:59:24.843Z,26.40
2022-11-15T18:01:51.329Z,26.38
2022-11-15T18:04:17.670Z,27.35
2022-11-15T18:06:44.060Z,27.58
2022-11-15T18:09:10.514Z,27.20
2022-11-15T18:11:39.215Z,32.65
2022-11-15T18:14:10.656Z,28.73
2022-11-15T18:16:37.739Z,26.10
2022-11-15T18:19:08.974Z,27.98
2022-11-15T18:21:55.481Z,26.17
2022-11-15T18:24:33.748Z,25.17
2022-11-15T18:27:01.835Z,25.20
2022-11-15T18:29:28.686Z,26.60
2022-11-15T18:31:55.830Z,26.33
2022-11-15T18:34:24.012Z,27.45
2022-11-15T18:36:53.610Z,28.05
2022-11-15T18:39:20.709Z,24.93
2022-11-15T18:41:47.851Z,25.05
2022-11-15T18:44:15.275Z,25.90
2022-11-15T18:46:42.488Z,28.17
2022-11-15T18:49:09.909Z,26.85
2022-11-15T18:51:41.977Z,26.15
2022-11-15T18:54:13.836Z,26.73
2022-11-15T18:56:41.229Z,25.02
2022-11-15T18:59:08.712Z,25.73
2022-11-15T19:01:37.486Z,25.77
2022-11-15T19:04:17.413Z,24.38
2022-11-15T19:06:46.545Z,23.35
2022-11-15T19:09:15.286Z,24.63
2022-11-15T19:11:42.954Z,23.88
2022-11-15T19:14:11.296Z,24.10
2022-11-15T19:16:41.622Z,24.52
2022-11-15T19:19:12.730Z,24.30
2022-11-15T19:21:39.096Z,25.45
2022-11-15T19:24:05.782Z,25.98
2022-11-15T19:26:32.466Z,25.52
2022-11-15T19:29:01.086Z,26.27
2022-11-15T19:31:29.732Z,26.08
2022-11-15T19:33:58.428Z,25.00
2022-11-15T19:36:28.167Z,24.52
2022-11-15T19:38:56.184Z,25.38
2022-11-15T19:41:24.408Z,26.60
2022-11-15T19:43:51.704Z,25.08
2022-11-15T19:46:23.486Z,24.45
2022-11-15T19:48:51.042Z,25.13
2022-11-15T19:51:21.545Z,25.20
2022-11-15T19:53:48.810Z,23.50
2022-11-15T19:56:17.411Z,25.30
2022-11-15T19:58:44.345Z,25.38
2022-11-15T20:01:24.550Z,25.85
2022-11-15T20:03:54.547Z,25.40
2022-11-15T20:06:23.865Z,24.70
2022-11-15T20:08:50.653Z,25.30
2022-11-15T20:11:18.301Z,23.92
2022-11-15T20:13:45.034Z,24.90
2022-11-15T20:16:22.623Z,23.85
2022-11-15T20:18:50.317Z,24.35
2022-11-15T20:21:17.354Z,24.40
2022-11-15T20:23:44.274Z,28.83
2022-11-15T20:26:11.076Z,24.85
2022-11-15T20:28:39.072Z,23.98
2022-11-15T20:31:07.092Z,24.15
2022-11-15T20:33:33.883Z,24.40
2022-11-15T20:36:08.108Z,29.02
2022-11-15T20:38:34.895Z,34.85
2022-11-15T20:41:01.673Z,28.13
2022-11-15T20:43:28.093Z,25.95
2022-11-15T20:45:54.575Z,26.08
2022-11-15T20:48:21.665Z,23.52
2022-11-15T20:50:48.228Z,24.25
2022-11-15T20:53:17.533Z,23.00
2022-11-15T20:55:49.177Z,24.10
2022-11-15T20:58:16.984Z,24.02
2022-11-15T21:00:44.860Z,23.00
2022-11-15T21:03:13.987Z,23.98
2022-11-15T21:05:44.291Z,24.02
2022-11-15T21:08:12.185Z,26.52
2022-11-15T21:10:59.234Z,25.05
2022-11-15T21:13:25.893Z,35.40
2022-11-15T21:15:56.607Z,31.13
2022-11-15T21:18:23.081Z,36.67
2022-11-15T21:20:49.515Z,28.33
2022-11-15T21:23:15.944Z,41.95
2022-11-15T21:25:48.609Z,24.77
2022-11-15T21:28:15.270Z,33.65
2022-11-15T21:30:41.639Z,27.77
2022-11-15T21:33:07.996Z,25.17
2022-11-15T21:35:34.596Z,25.90
2022-11-15T21:38:00.947Z,32.35
2022-11-15T21:40:27.308Z,28.13
2022-11-15T21:42:53.678Z,23.80
2022-11-15T21:45:20.048Z,26.92
2022-11-15T21:47:46.928Z,25.30
2022-11-15T21:50:14.111Z,24.88
2022-11-15T21:52:40.973Z,23.33
2022-11-15T21:55:08.382Z,24.08
2022-11-15T21:57:34.786Z,25.70
2022-11-15T22:00:19.772Z,23.88
2022-11-15T22:02:46.155Z,24.00
2022-11-15T22:05:12.502Z,26.70
2022-11-15T22:07:38.875Z,22.98
2022-11-15T22:10:05.830Z,21.60
2022-11-15T22:12:32.222Z,24.67
2022-11-15T22:14:58.657Z,23.23
2022-11-15T22:17:45.095Z,22.55
2022-11-15T22:20:37.622Z,21.55
2022-11-15T22:22:59.563Z,22.13
2022-11-15T22:25:26.399Z,23.15
2022-11-15T22:27:53.357Z,21.63
2022-11-15T22:30:20.134Z,22.27
2022-11-15T22:32:46.728Z,22.27
2022-11-15T22:35:13.516Z,25.00
2022-11-15T22:37:40.012Z,23.65
2022-11-15T22:40:07.081Z,24.13
2022-11-15T22:42:33.503Z,24.67
2022-11-15T22:44:59.846Z,24.98
2022-11-15T22:47:26.334Z,27.95
2022-11-15T22:49:52.673Z,26.02
2022-11-15T22:52:19.051Z,25.27
2022-11-15T22:54:45.418Z,28.48
2022-11-15T22:57:11.801Z,28.02
2022-11-15T22:59:38.231Z,31.98
2022-11-15T23:02:04.835Z,27.52
2022-11-15T23:04:31.191Z,28.60
2022-11-15T23:06:57.616Z,26.73
2022-11-15T23:09:24.033Z,28.42
2022-11-15T23:12:09.036Z,29.27
2022-11-15T23:14:35.458Z,27.92
2022-11-15T23:17:01.940Z,27.88
2022-11-15T23:19:28.309Z,27.75
2022-11-15T23:22:13.405Z,28.30
2022-11-15T23:24:39.812Z,28.73
2022-11-15T23:27:07.702Z,28.52
2022-11-15T23:29:54.490Z,28.55
2022-11-15T23:32:39.274Z,27.67
2022-11-15T23:35:06.104Z,27.65
2022-11-15T23:37:32.611Z,26.98
2022-11-15T23:39:59.022Z,26.48
2022-11-15T23:42:25.404Z,26.33
2022-11-15T23:44:51.804Z,25.75
2022-11-15T23:47:18.907Z,25.33
2022-11-15T23:49:45.463Z,25.65
2022-11-15T23:52:15.541Z,24.38
2022-11-15T23:54:42.317Z,23.75
2022-11-15T23:57:11.855Z,23.30
2022-11-15T23:59:39.578Z,24.57
